createdAt,value
2023-05-24T00:00:12.343Z,115378.78
2023-05-24T00:01:15.320Z,114857.75
2023-05-24T00:02:18.396Z,116811.96
2023-05-24T00:03:21.473Z,116943.30
2023-05-24T00:04:25.576Z,116943.30
2023-05-24T00:05:28.764Z,116943.30
2023-05-24T00:06:32.164Z,116943.30
2023-05-24T00:07:35.230Z,116943.30
2023-05-24T00:08:38.205Z,116943.30
2023-05-24T00:09:41.487Z,116943.30
2023-05-24T00:10:44.508Z,116943.30
2023-05-24T00:11:47.651Z,116943.30
2023-05-24T00:12:50.525Z,116943.30
2023-05-24T00:13:53.396Z,116943.30
2023-05-24T00:14:56.373Z,116943.30
2023-05-24T00:15:59.157Z,116943.30
2023-05-24T00:17:01.962Z,116943.30
2023-05-24T00:18:04.754Z,116943.30
2023-05-24T00:19:07.677Z,116943.30
2023-05-24T00:20:11.030Z,116943.30
2023-05-24T00:21:13.727Z,116943.30
2023-05-24T00:22:16.813Z,116943.30
2023-05-24T00:23:19.777Z,116943.30
2023-05-24T00:24:22.666Z,116943.30
2023-05-24T00:25:25.432Z,116943.30
2023-05-24T00:26:28.200Z,116421.05
2023-05-24T00:27:31.074Z,116160.45
2023-05-24T00:28:33.958Z,115509.05
2023-05-24T00:29:37.151Z,115509.05
2023-05-24T00:30:40.154Z,114206.55
2023-05-24T00:31:42.996Z,113425.25
2023-05-24T00:32:45.892Z,112253.59
2023-05-24T00:33:48.836Z,104840.84
2023-05-24T00:34:52.025Z,103801.54
2023-05-24T00:35:55.419Z,97441.59
2023-05-24T00:36:58.377Z,94589.36
2023-05-24T00:38:01.362Z,95367.05
2023-05-24T00:39:04.233Z,103541.75
2023-05-24T00:40:07.324Z,106920.25
2023-05-24T00:41:10.392Z,109911.27
2023-05-24T00:42:13.996Z,108480.50
2023-05-24T00:43:17.273Z,108220.42
2023-05-24T00:44:20.256Z,107050.25
2023-05-24T00:45:23.334Z,107310.25
2023-05-24T00:46:26.606Z,106010.38
2023-05-24T00:47:29.835Z,105750.45
2023-05-24T00:48:32.887Z,106010.38
2023-05-24T00:49:36.257Z,104970.77
2023-05-24T00:50:39.134Z,104191.25
2023-05-24T00:51:42.317Z,99517.22
2023-05-24T00:52:45.397Z,101204.44
2023-05-24T00:53:48.591Z,96793.19
2023-05-24T00:54:51.880Z,92127.69
2023-05-24T00:55:55.333Z,96922.86
2023-05-24T00:56:58.538Z,104321.16
2023-05-24T00:58:01.517Z,100815.02
2023-05-24T00:59:04.283Z,87537.30
2023-05-24T01:00:07.358Z,85593.11
2023-05-24T01:01:10.355Z,80425.94
2023-05-24T01:02:13.878Z,88301.50
2023-05-24T01:03:16.892Z,93552.69
2023-05-24T01:04:19.889Z,97441.59
2023-05-24T01:05:23.067Z,96663.52
2023-05-24T01:06:26.150Z,98479.27
2023-05-24T01:07:29.429Z,102632.64
2023-05-24T01:08:32.516Z,100685.22
2023-05-24T01:09:35.499Z,102762.50
2023-05-24T01:10:38.692Z,82323.23
2023-05-24T01:11:41.752Z,90511.00
2023-05-24T01:12:45.131Z,98479.27
2023-05-24T01:13:48.019Z,103281.98
2023-05-24T01:14:51.089Z,97830.70
2023-05-24T01:15:54.129Z,98219.83
2023-05-24T01:16:57.049Z,95885.58
2023-05-24T01:18:00.254Z,98349.55
2023-05-24T01:19:03.198Z,87917.36
2023-05-24T01:20:06.411Z,93811.83
2023-05-24T01:21:09.360Z,101723.73
2023-05-24T01:22:12.351Z,103801.54
2023-05-24T01:23:15.631Z,103152.11
2023-05-24T01:24:19.012Z,106140.34
2023-05-24T01:25:21.777Z,99906.52
2023-05-24T01:26:24.565Z,98998.21
2023-05-24T01:27:27.433Z,102502.78
2023-05-24T01:28:30.335Z,100944.82
2023-05-24T01:29:32.971Z,95626.30
2023-05-24T01:30:35.849Z,89105.27
2023-05-24T01:31:38.641Z,88395.52
2023-05-24T01:32:41.329Z,81770.09
2023-05-24T01:33:44.276Z,83659.94
2023-05-24T01:34:47.470Z,88324.75
2023-05-24T01:35:50.333Z,91198.88
2023-05-24T01:36:53.512Z,94589.36
2023-05-24T01:37:56.581Z,100295.84
2023-05-24T01:38:59.985Z,103411.87
2023-05-24T01:40:03.169Z,101204.44
2023-05-24T01:41:05.942Z,101853.55
2023-05-24T01:42:10.030Z,101853.55
2023-05-24T01:43:13.110Z,98479.27
2023-05-24T01:44:16.390Z,100036.29
2023-05-24T01:45:19.571Z,95107.80
2023-05-24T01:46:23.516Z,100166.06
2023-05-24T01:47:27.103Z,100166.06
2023-05-24T01:48:30.244Z,95237.42
2023-05-24T01:49:33.768Z,87517.09
2023-05-24T01:50:36.511Z,92516.27
2023-05-24T01:51:39.180Z,100425.63
2023-05-24T01:52:42.257Z,97311.91
2023-05-24T01:53:45.027Z,97571.30
2023-05-24T01:54:47.898Z,98479.27
2023-05-24T01:55:50.771Z,101983.39
2023-05-24T01:56:53.546Z,100166.06
2023-05-24T01:57:56.315Z,90203.52
2023-05-24T01:58:59.092Z,83651.86
2023-05-24T02:00:02.016Z,78251.22
2023-05-24T02:01:05.010Z,67027.22
2023-05-24T02:02:07.863Z,71063.66
2023-05-24T02:03:10.671Z,53481.96
2023-05-24T02:04:13.579Z,51330.91
2023-05-24T02:05:16.656Z,58262.15
2023-05-24T02:06:19.525Z,72183.16
2023-05-24T02:07:22.211Z,82658.38
2023-05-24T02:08:25.369Z,91609.63
2023-05-24T02:09:28.263Z,93164.00
2023-05-24T02:10:31.016Z,96274.53
2023-05-24T02:11:34.433Z,88442.02
2023-05-24T02:12:37.381Z,89766.61
2023-05-24T02:13:40.366Z,90527.19
2023-05-24T02:14:43.350Z,85138.52
2023-05-24T02:15:46.526Z,79596.66
2023-05-24T02:16:49.253Z,80926.41
2023-05-24T02:17:52.091Z,75505.25
2023-05-24T02:18:54.833Z,79004.57
2023-05-24T02:19:57.660Z,62771.85
2023-05-24T02:21:00.704Z,51756.62
2023-05-24T02:22:03.365Z,51535.24
2023-05-24T02:23:06.040Z,52378.74
2023-05-24T02:24:08.797Z,52860.67
2023-05-24T02:25:11.596Z,66967.89
2023-05-24T02:26:14.483Z,62677.43
2023-05-24T02:27:17.325Z,60267.39
2023-05-24T02:28:19.990Z,54363.96
2023-05-24T02:29:22.672Z,61988.41
2023-05-24T02:30:25.550Z,50856.17
2023-05-24T02:31:28.860Z,48953.78
2023-05-24T02:32:31.765Z,48936.76
2023-05-24T02:33:34.480Z,46491.05
2023-05-24T02:34:37.136Z,44701.75
2023-05-24T02:35:39.916Z,44726.75
2023-05-24T02:36:42.704Z,45023.75
2023-05-24T02:37:45.676Z,45510.79
2023-05-24T02:38:48.745Z,46119.92
2023-05-24T02:39:51.722Z,46475.04
2023-05-24T02:40:54.824Z,46146.93
2023-05-24T02:41:58.512Z,49032.86
2023-05-24T02:43:01.502Z,53286.55
2023-05-24T02:44:04.553Z,58814.04
2023-05-24T02:45:07.517Z,52570.10
2023-05-24T02:46:10.532Z,52519.00
2023-05-24T02:47:13.779Z,59982.30
2023-05-24T02:48:16.863Z,63665.97
2023-05-24T02:49:20.044Z,52158.33
2023-05-24T02:50:23.134Z,48623.46
2023-05-24T02:51:26.313Z,47166.37
2023-05-24T02:52:29.896Z,46795.18
2023-05-24T02:53:32.979Z,47370.49
2023-05-24T02:54:36.051Z,47692.70
2023-05-24T02:55:39.131Z,48141.04
2023-05-24T02:56:41.917Z,48191.08
2023-05-24T02:57:44.790Z,48001.93
2023-05-24T02:58:47.754Z,47937.88
2023-05-24T02:59:50.650Z,48912.74
2023-05-24T03:00:53.618Z,52948.85
2023-05-24T03:01:56.654Z,52287.57
2023-05-24T03:02:59.824Z,49736.65
2023-05-24T03:04:02.823Z,49263.11
2023-05-24T03:05:05.960Z,48853.68
2023-05-24T03:06:08.907Z,47829.80
2023-05-24T03:07:11.992Z,47839.81
2023-05-24T03:08:15.284Z,47288.44
2023-05-24T03:09:18.154Z,47630.66
2023-05-24T03:10:21.123Z,46743.16
2023-05-24T03:11:24.318Z,46469.04
2023-05-24T03:12:26.982Z,47851.82
2023-05-24T03:13:29.752Z,49701.61
2023-05-24T03:14:32.613Z,48028.95
2023-05-24T03:15:35.294Z,47789.77
2023-05-24T03:16:38.210Z,47238.41
2023-05-24T03:17:41.072Z,46936.25
2023-05-24T03:18:43.814Z,46780.17
2023-05-24T03:19:46.575Z,47124.35
2023-05-24T03:20:49.354Z,47647.67
2023-05-24T03:21:53.879Z,47640.67
2023-05-24T03:22:56.842Z,47707.71
2023-05-24T03:24:00.234Z,47732.73
2023-05-24T03:25:03.223Z,47670.69
2023-05-24T03:26:06.297Z,47670.69
2023-05-24T03:27:09.576Z,47386.50
2023-05-24T03:28:12.647Z,47106.34
2023-05-24T03:29:15.733Z,47450.54
2023-05-24T03:30:18.910Z,47171.37
2023-05-24T03:31:21.925Z,47491.57
2023-05-24T03:32:24.990Z,47381.50
2023-05-24T03:33:28.062Z,47442.54
2023-05-24T03:34:31.334Z,46121.92
2023-05-24T03:35:34.618Z,45263.76
2023-05-24T03:36:37.596Z,45528.79
2023-05-24T03:37:40.580Z,44968.75
2023-05-24T03:38:43.454Z,44963.75
2023-05-24T03:39:46.445Z,45534.79
2023-05-24T03:40:49.396Z,45247.76
2023-05-24T03:41:52.699Z,45365.77
2023-05-24T03:42:55.773Z,45361.77
2023-05-24T03:43:58.742Z,45825.84
2023-05-24T03:45:02.018Z,45811.84
2023-05-24T03:46:04.779Z,45709.82
2023-05-24T03:47:07.668Z,45535.79
2023-05-24T03:48:10.752Z,45494.79
2023-05-24T03:49:13.635Z,46831.20
2023-05-24T03:50:16.711Z,46063.91
2023-05-24T03:51:19.578Z,45555.79
2023-05-24T03:52:22.663Z,45352.77
2023-05-24T03:53:25.740Z,45844.85
2023-05-24T03:54:28.926Z,45938.87
2023-05-24T03:55:32.014Z,45347.77
2023-05-24T03:56:34.877Z,44605.76
2023-05-24T03:57:37.748Z,44126.83
2023-05-24T03:58:40.735Z,46758.16
2023-05-24T03:59:43.705Z,47084.33
2023-05-24T04:00:46.780Z,46795.18
2023-05-24T04:02:02.089Z,45774.84
2023-05-24T04:03:05.286Z,45822.84
2023-05-24T04:04:08.213Z,44584.77
2023-05-24T04:05:11.281Z,44592.77
2023-05-24T04:06:16.268Z,44742.75
2023-05-24T04:07:19.076Z,45059.75
2023-05-24T04:08:22.056Z,43869.89
2023-05-24T04:09:25.151Z,45092.75
2023-05-24T04:10:28.224Z,46402.02
2023-05-24T04:11:31.404Z,46874.22
2023-05-24T04:12:34.480Z,44931.75
2023-05-24T04:13:37.463Z,45191.75
2023-05-24T04:14:40.646Z,45307.77
2023-05-24T04:15:43.505Z,46136.93
2023-05-24T04:16:46.608Z,45332.77
2023-05-24T04:17:49.633Z,47334.47
2023-05-24T04:18:52.686Z,47930.88
2023-05-24T04:19:55.884Z,46862.21
2023-05-24T04:20:58.710Z,46153.93
2023-05-24T04:22:01.573Z,44794.75
2023-05-24T04:23:04.352Z,45069.75
2023-05-24T04:24:07.035Z,44305.80
2023-05-24T04:25:09.744Z,45159.75
2023-05-24T04:26:12.766Z,44307.80
2023-05-24T04:27:15.645Z,45303.76
2023-05-24T04:28:18.513Z,44451.78
2023-05-24T04:29:21.400Z,45512.79
2023-05-24T04:30:24.173Z,47408.52
2023-05-24T04:31:27.213Z,46631.11
2023-05-24T04:32:30.515Z,47963.90
2023-05-24T04:33:33.520Z,48450.30
2023-05-24T04:34:36.490Z,49089.92
2023-05-24T04:35:39.680Z,50448.58
2023-05-24T04:36:42.651Z,52152.32
2023-05-24T04:37:45.826Z,51717.55
2023-05-24T04:38:48.799Z,52221.45
2023-05-24T04:39:51.697Z,50943.30
2023-05-24T04:40:57.627Z,49651.55
2023-05-24T04:42:00.652Z,48652.48
2023-05-24T04:43:03.691Z,47770.76
2023-05-24T04:44:06.578Z,50068.07
2023-05-24T04:45:09.634Z,48799.63
2023-05-24T04:46:12.645Z,49946.91
2023-05-24T04:47:18.353Z,68034.95
2023-05-24T04:48:21.638Z,77543.38
2023-05-24T04:49:24.616Z,79438.29
2023-05-24T04:50:28.046Z,88987.98
2023-05-24T04:51:33.880Z,93293.55
2023-05-24T04:52:36.921Z,85988.13
2023-05-24T04:53:39.804Z,80132.34
2023-05-24T04:54:42.775Z,79663.23
2023-05-24T04:55:45.852Z,83074.31
2023-05-24T04:56:48.935Z,85682.01
2023-05-24T04:57:51.814Z,89357.05
2023-05-24T04:58:54.900Z,98479.27
2023-05-24T04:59:57.865Z,98219.83
2023-05-24T05:01:03.506Z,104840.84
2023-05-24T05:02:06.607Z,104451.08
2023-05-24T05:03:09.634Z,106010.38
2023-05-24T05:04:12.742Z,97830.70
2023-05-24T05:05:15.717Z,103411.87
2023-05-24T05:06:18.803Z,101334.25
2023-05-24T05:07:24.647Z,96404.19
2023-05-24T05:08:27.621Z,83556.95
2023-05-24T05:09:30.604Z,73625.28
2023-05-24T05:10:33.575Z,61453.15
2023-05-24T05:11:36.458Z,51443.09
2023-05-24T05:12:39.531Z,76764.09
2023-05-24T05:13:45.368Z,87617.16
2023-05-24T05:14:48.673Z,96015.23
2023-05-24T05:15:51.736Z,103931.44
2023-05-24T05:16:54.988Z,104580.98
2023-05-24T05:17:58.162Z,107700.30
2023-05-24T05:19:01.069Z,108480.50
2023-05-24T05:20:04.446Z,103022.23
2023-05-24T05:21:07.445Z,106660.27
2023-05-24T05:22:10.531Z,108090.38
2023-05-24T05:23:15.953Z,108090.38
2023-05-24T05:24:19.334Z,108740.61
2023-05-24T05:25:22.548Z,112644.11
2023-05-24T05:26:25.600Z,111472.66
2023-05-24T05:27:28.574Z,113295.05
2023-05-24T05:28:31.451Z,112383.76
2023-05-24T05:29:36.882Z,112513.92
2023-05-24T05:30:40.922Z,113946.10
2023-05-24T05:31:44.083Z,113685.67
2023-05-24T05:32:47.124Z,113946.10
2023-05-24T05:33:50.035Z,115899.87
2023-05-24T05:34:52.716Z,116290.75
2023-05-24T05:35:55.880Z,116160.45
2023-05-24T05:36:58.652Z,116681.65
2023-05-24T05:38:01.429Z,116943.30
2023-05-24T05:39:07.059Z,116943.30
2023-05-24T05:40:12.724Z,116943.30
2023-05-24T05:41:17.941Z,116943.30
2023-05-24T05:42:20.704Z,116943.30
2023-05-24T05:43:23.475Z,116943.30
2023-05-24T05:44:26.141Z,116943.30
2023-05-24T05:45:28.828Z,116943.30
2023-05-24T05:46:31.770Z,116943.30
2023-05-24T05:47:34.818Z,116943.30
2023-05-24T05:48:37.764Z,116943.30
2023-05-24T05:49:40.733Z,116943.30
2023-05-24T05:50:44.176Z,116943.30
2023-05-24T05:51:47.596Z,116943.30
2023-05-24T05:52:50.471Z,116943.30
2023-05-24T05:53:53.969Z,116943.30
2023-05-24T05:54:56.950Z,116943.30
2023-05-24T05:56:00.160Z,116943.30
2023-05-24T05:57:03.313Z,116943.30
2023-05-24T05:58:09.049Z,116943.30
2023-05-24T05:59:12.139Z,116943.30
2023-05-24T06:00:15.023Z,116943.30
2023-05-24T06:01:17.898Z,116943.30
2023-05-24T06:02:20.774Z,116943.30
2023-05-24T06:03:29.597Z,116943.30
2023-05-24T06:04:32.773Z,116943.30
2023-05-24T06:05:38.689Z,116943.30
2023-05-24T06:06:44.230Z,116943.30
2023-05-24T06:07:47.520Z,116943.30
2023-05-24T06:08:50.591Z,116943.30
2023-05-24T06:09:53.677Z,116943.30
2023-05-24T06:10:56.656Z,116943.30
2023-05-24T06:12:02.204Z,116030.16
2023-05-24T06:13:05.095Z,114467.02
2023-05-24T06:14:07.942Z,113555.46
2023-05-24T06:15:10.913Z,109781.17
2023-05-24T06:16:13.860Z,113034.66
2023-05-24T06:17:28.764Z,112904.47
2023-05-24T06:18:32.027Z,112513.92
2023-05-24T06:19:34.911Z,114206.55
2023-05-24T06:20:38.113Z,115639.32
2023-05-24T06:21:47.358Z,116811.96
2023-05-24T06:22:53.056Z,116943.30
2023-05-24T06:23:56.458Z,116943.30
2023-05-24T06:24:59.333Z,116943.30
2023-05-24T06:26:02.396Z,116943.30
2023-05-24T06:27:07.823Z,116943.30
2023-05-24T06:28:10.697Z,116943.30
2023-05-24T06:29:16.865Z,116943.30
2023-05-24T06:30:19.899Z,116943.30
2023-05-24T06:31:22.978Z,116943.30
2023-05-24T06:32:28.880Z,116943.30
2023-05-24T06:33:31.841Z,116943.30
2023-05-24T06:34:34.916Z,116943.30
2023-05-24T06:35:40.458Z,116943.30
2023-05-24T06:36:43.528Z,116943.30
2023-05-24T06:37:46.524Z,116943.30
2023-05-24T06:38:49.275Z,116943.30
2023-05-24T06:39:55.533Z,116943.30
2023-05-24T06:41:01.474Z,116943.30
2023-05-24T06:42:04.454Z,116943.30
2023-05-24T06:43:07.532Z,116943.30
2023-05-24T06:44:10.413Z,116943.30
2023-05-24T06:45:13.397Z,116943.30
2023-05-24T06:46:16.270Z,116943.30
2023-05-24T06:47:22.381Z,116943.30
2023-05-24T06:48:25.598Z,116943.30
2023-05-24T06:49:28.803Z,116943.30
2023-05-24T06:50:32.179Z,116943.30
2023-05-24T06:51:37.520Z,116943.30
2023-05-24T06:52:43.244Z,116943.30
2023-05-24T06:53:49.083Z,116943.30
2023-05-24T06:54:51.860Z,116943.30
2023-05-24T06:55:56.911Z,116943.30
2023-05-24T06:56:59.135Z,116943.30
2023-05-24T06:58:02.128Z,116943.30
2023-05-24T06:59:04.855Z,116943.30
2023-05-24T07:00:07.564Z,116943.30
2023-05-24T07:01:10.332Z,116943.30
2023-05-24T07:02:13.001Z,116943.30
2023-05-24T07:03:15.670Z,116943.30
2023-05-24T07:04:18.491Z,116943.30
2023-05-24T07:05:21.222Z,116943.30
2023-05-24T07:06:24.294Z,116943.30
2023-05-24T07:07:27.073Z,116943.30
2023-05-24T07:08:29.842Z,116943.30
2023-05-24T07:09:32.519Z,116943.30
2023-05-24T07:10:35.500Z,116943.30
2023-05-24T07:11:38.790Z,116943.30
2023-05-24T07:12:41.762Z,116943.30
2023-05-24T07:13:44.722Z,116943.30
2023-05-24T07:14:47.605Z,116943.30
2023-05-24T07:15:50.575Z,116943.30
2023-05-24T07:16:53.796Z,116943.30
2023-05-24T07:17:56.806Z,116943.30
2023-05-24T07:19:01.253Z,116943.30
2023-05-24T07:20:04.242Z,116943.30
2023-05-24T07:21:07.209Z,116943.30
2023-05-24T07:22:10.420Z,116943.30
2023-05-24T07:23:13.365Z,116943.30
2023-05-24T07:24:16.528Z,116943.30
2023-05-24T07:25:19.735Z,116943.30
2023-05-24T07:26:22.501Z,116943.30
2023-05-24T07:27:25.476Z,116943.30
2023-05-24T07:28:28.361Z,116943.30
2023-05-24T07:29:31.013Z,116943.30
2023-05-24T07:30:33.789Z,116943.30
2023-05-24T07:31:36.555Z,116943.30
2023-05-24T07:32:39.458Z,116943.30
2023-05-24T07:33:42.114Z,116943.30
2023-05-24T07:34:45.085Z,116943.30
2023-05-24T07:35:47.955Z,116943.30
2023-05-24T07:36:51.051Z,116943.30
2023-05-24T07:37:54.443Z,116943.30
2023-05-24T07:38:57.291Z,116943.30
2023-05-24T07:40:00.694Z,116943.30
2023-05-24T07:41:03.654Z,116943.30
2023-05-24T07:42:06.530Z,116943.30
2023-05-24T07:43:09.721Z,116943.30
2023-05-24T07:44:12.901Z,116943.30
2023-05-24T07:45:15.993Z,116943.30
2023-05-24T07:46:19.026Z,116943.30
2023-05-24T07:47:21.933Z,116943.30
2023-05-24T07:48:25.020Z,116943.30
2023-05-24T07:49:27.793Z,116943.30
2023-05-24T07:50:30.576Z,116943.30
2023-05-24T07:51:33.237Z,116943.30
2023-05-24T07:52:35.909Z,116943.30
2023-05-24T07:53:38.989Z,116943.30
2023-05-24T07:54:42.071Z,116943.30
2023-05-24T07:55:44.926Z,116943.30
2023-05-24T07:56:47.716Z,116943.30
2023-05-24T07:57:50.484Z,116943.30
2023-05-24T07:58:53.458Z,116943.30
2023-05-24T07:59:56.342Z,116943.30
2023-05-24T08:00:59.006Z,116943.30
2023-05-24T08:02:01.893Z,116943.30
2023-05-24T08:03:04.945Z,116943.30
2023-05-24T08:04:08.322Z,116943.30
2023-05-24T08:05:11.214Z,116943.30
2023-05-24T08:06:14.214Z,116943.30
2023-05-24T08:07:17.100Z,116943.30
2023-05-24T08:08:20.044Z,116943.30
2023-05-24T08:09:22.931Z,116943.30
2023-05-24T08:10:25.934Z,116943.30
2023-05-24T08:11:28.875Z,116943.30
2023-05-24T08:12:31.747Z,116943.30
2023-05-24T08:13:34.726Z,116943.30
2023-05-24T08:14:37.926Z,116943.30
2023-05-24T08:15:40.938Z,116943.30
2023-05-24T08:16:44.082Z,116943.30
2023-05-24T08:17:47.104Z,116943.30
2023-05-24T08:18:52.532Z,116943.30
2023-05-24T08:19:54.882Z,116943.30
2023-05-24T08:20:57.713Z,116943.30
2023-05-24T08:22:00.480Z,116943.30
2023-05-24T08:23:03.256Z,116943.30
2023-05-24T08:24:08.521Z,116943.30
2023-05-24T08:25:10.336Z,116943.30
2023-05-24T08:26:13.118Z,116943.30
2023-05-24T08:27:16.197Z,116943.30
2023-05-24T08:28:18.971Z,116943.30
2023-05-24T08:29:21.731Z,116943.30
2023-05-24T08:30:24.528Z,116943.30
2023-05-24T08:31:27.337Z,116943.30
2023-05-24T08:32:30.693Z,116943.30
2023-05-24T08:33:33.638Z,116943.30
2023-05-24T08:34:36.621Z,116943.30
2023-05-24T08:35:39.917Z,116943.30
2023-05-24T08:36:42.988Z,116943.30
2023-05-24T08:37:45.980Z,116943.30
2023-05-24T08:38:48.939Z,116943.30
2023-05-24T08:39:51.907Z,116943.30
2023-05-24T08:40:55.194Z,116943.30
2023-05-24T08:42:08.615Z,116943.30
2023-05-24T08:43:02.841Z,116943.30
2023-05-24T08:44:05.764Z,116943.30
2023-05-24T08:45:08.846Z,116943.30
2023-05-24T08:46:11.948Z,116943.30
2023-05-24T08:47:14.899Z,116943.30
2023-05-24T08:48:17.847Z,116943.30
2023-05-24T08:49:20.754Z,116943.30
2023-05-24T08:50:23.979Z,116943.30
2023-05-24T08:51:27.122Z,116943.30
2023-05-24T08:52:29.989Z,116943.30
2023-05-24T08:53:32.889Z,116943.30
2023-05-24T08:54:35.641Z,116943.30
2023-05-24T08:55:38.514Z,116943.30
2023-05-24T08:56:41.700Z,116943.30
2023-05-24T08:57:44.468Z,116943.30
2023-05-24T08:58:47.662Z,116943.30
2023-05-24T08:59:50.732Z,116943.30
2023-05-24T09:00:53.728Z,116943.30
2023-05-24T09:01:56.938Z,116943.30
2023-05-24T09:03:00.299Z,116943.30
2023-05-24T09:04:03.288Z,116943.30
2023-05-24T09:05:06.435Z,116943.30
2023-05-24T09:06:09.422Z,116943.30
2023-05-24T09:07:12.598Z,116943.30
2023-05-24T09:08:15.581Z,116943.30
2023-05-24T09:09:18.453Z,116943.30
2023-05-24T09:10:21.322Z,116943.30
2023-05-24T09:11:24.193Z,116943.30
2023-05-24T09:12:37.262Z,116943.30
2023-05-24T09:13:31.991Z,116943.30
2023-05-24T09:14:34.869Z,116943.30
2023-05-24T09:15:37.893Z,116943.30
2023-05-24T09:16:40.840Z,116943.30
2023-05-24T09:17:43.646Z,116943.30
2023-05-24T09:18:46.371Z,116943.30
2023-05-24T09:19:49.229Z,116943.30
2023-05-24T09:20:51.956Z,116943.30
2023-05-24T09:21:54.679Z,116943.30
2023-05-24T09:22:57.487Z,116943.30
2023-05-24T09:24:00.153Z,116943.30
2023-05-24T09:25:02.712Z,116943.30
2023-05-24T09:26:05.460Z,116943.30
2023-05-24T09:27:08.255Z,116943.30
2023-05-24T09:28:11.012Z,116943.30
2023-05-24T09:29:13.779Z,116943.30
2023-05-24T09:30:16.685Z,116943.30
2023-05-24T09:31:19.478Z,116943.30
2023-05-24T09:32:22.226Z,116943.30
2023-05-24T09:33:24.967Z,116943.30
2023-05-24T09:34:27.746Z,116943.30
2023-05-24T09:35:30.616Z,116943.30
2023-05-24T09:36:33.387Z,116943.30
2023-05-24T09:37:36.056Z,116943.30
2023-05-24T09:38:38.833Z,116943.30
2023-05-24T09:39:41.500Z,116943.30
2023-05-24T09:40:44.442Z,116943.30
2023-05-24T09:41:47.350Z,116943.30
2023-05-24T09:42:50.438Z,116943.30
2023-05-24T09:43:53.617Z,116943.30
2023-05-24T09:44:56.541Z,116943.30
2023-05-24T09:45:59.509Z,116943.30
2023-05-24T09:47:02.396Z,116943.30
2023-05-24T09:48:05.540Z,116943.30
2023-05-24T09:49:08.914Z,116943.30
2023-05-24T09:50:11.886Z,116943.30
2023-05-24T09:51:14.999Z,116943.30
2023-05-24T09:52:17.947Z,116943.30
2023-05-24T09:53:21.017Z,116943.30
2023-05-24T09:54:23.903Z,116943.30
2023-05-24T09:55:26.777Z,116943.30
2023-05-24T09:56:30.773Z,116943.30
2023-05-24T09:57:33.646Z,116943.30
2023-05-24T09:58:38.049Z,116943.30
2023-05-24T09:59:42.969Z,116943.30
2023-05-24T10:00:46.006Z,116943.30
2023-05-24T10:01:49.464Z,116943.30
2023-05-24T10:02:53.432Z,116943.30
2023-05-24T10:03:56.755Z,116943.30
2023-05-24T10:04:59.842Z,116943.30
2023-05-24T10:06:02.800Z,116943.30
2023-05-24T10:07:05.776Z,116943.30
2023-05-24T10:08:08.636Z,116943.30
2023-05-24T10:09:11.625Z,116943.30
2023-05-24T10:10:14.928Z,116943.30
2023-05-24T10:11:17.882Z,116943.30
2023-05-24T10:12:20.855Z,116943.30
2023-05-24T10:13:23.525Z,116943.30
2023-05-24T10:14:26.211Z,116943.30
2023-05-24T10:15:29.289Z,116943.30
2023-05-24T10:16:31.957Z,116943.30
2023-05-24T10:17:34.833Z,116943.30
2023-05-24T10:18:37.487Z,116943.30
2023-05-24T10:19:40.261Z,116943.30
2023-05-24T10:20:43.596Z,116943.30
2023-05-24T10:21:46.770Z,116943.30
2023-05-24T10:22:49.705Z,116943.30
2023-05-24T10:23:52.594Z,116943.30
2023-05-24T10:24:55.657Z,116943.30
2023-05-24T10:25:58.945Z,116943.30
2023-05-24T10:27:01.921Z,116943.30
2023-05-24T10:28:04.898Z,116943.30
2023-05-24T10:29:07.876Z,116943.30
2023-05-24T10:30:12.960Z,116943.30
2023-05-24T10:31:15.594Z,116943.30
2023-05-24T10:32:18.552Z,116943.30
2023-05-24T10:33:21.435Z,116943.30
2023-05-24T10:34:24.501Z,116943.30
2023-05-24T10:35:27.472Z,116943.30
2023-05-24T10:36:30.358Z,116943.30
2023-05-24T10:37:33.331Z,116943.30
2023-05-24T10:38:36.095Z,116943.30
2023-05-24T10:39:39.189Z,116943.30
2023-05-24T10:40:42.083Z,116943.30
2023-05-24T10:41:45.130Z,116943.30
2023-05-24T10:42:48.117Z,116943.30
2023-05-24T10:44:07.992Z,116943.30
2023-05-24T10:44:55.499Z,116943.30
2023-05-24T10:45:58.520Z,116943.30
2023-05-24T10:47:01.669Z,116943.30
2023-05-24T10:48:04.551Z,116943.30
2023-05-24T10:49:07.577Z,116943.30
2023-05-24T10:50:10.483Z,116943.30
2023-05-24T10:51:13.362Z,116943.30
2023-05-24T10:52:16.639Z,116943.30
2023-05-24T10:53:19.640Z,116943.30
2023-05-24T10:54:22.803Z,116943.30
2023-05-24T10:55:25.906Z,116943.30
2023-05-24T10:56:28.866Z,116943.30
2023-05-24T10:57:31.959Z,116943.30
2023-05-24T10:58:34.813Z,116943.30
2023-05-24T10:59:38.019Z,116943.30
2023-05-24T11:00:40.869Z,116943.30
2023-05-24T11:01:43.685Z,116943.30
2023-05-24T11:02:46.640Z,116943.30
2023-05-24T11:03:49.290Z,116943.30
2023-05-24T11:04:52.161Z,116943.30
2023-05-24T11:05:55.276Z,116943.30
2023-05-24T11:06:58.031Z,116943.30
2023-05-24T11:08:00.789Z,116943.30
2023-05-24T11:09:03.570Z,116943.30
2023-05-24T11:10:06.233Z,116943.30
2023-05-24T11:11:23.323Z,116943.30
2023-05-24T11:12:13.308Z,116943.30
2023-05-24T11:13:16.097Z,116943.30
2023-05-24T11:14:18.754Z,116943.30
2023-05-24T11:15:21.739Z,116943.30
2023-05-24T11:16:24.642Z,116943.30
2023-05-24T11:17:27.618Z,116943.30
2023-05-24T11:18:30.579Z,116943.30
2023-05-24T11:19:33.537Z,116943.30
2023-05-24T11:20:36.620Z,116943.30
2023-05-24T11:21:39.592Z,116943.30
2023-05-24T11:22:42.676Z,116943.30
2023-05-24T11:23:45.960Z,116943.30
2023-05-24T11:24:48.848Z,116943.30
2023-05-24T11:25:51.805Z,116943.30
2023-05-24T11:26:54.685Z,116943.30
2023-05-24T11:27:57.376Z,116943.30
2023-05-24T11:29:03.311Z,116943.30
2023-05-24T11:30:05.047Z,116943.30
2023-05-24T11:31:08.063Z,116943.30
2023-05-24T11:32:11.286Z,116943.30
2023-05-24T11:33:14.463Z,116943.30
2023-05-24T11:34:17.682Z,116943.30
2023-05-24T11:35:21.061Z,116943.30
2023-05-24T11:36:24.047Z,116943.30
2023-05-24T11:37:38.506Z,116943.30
2023-05-24T11:38:31.425Z,116943.30
2023-05-24T11:39:34.634Z,116943.30
2023-05-24T11:40:37.482Z,116943.30
2023-05-24T11:41:40.463Z,116943.30
2023-05-24T11:42:43.546Z,116943.30
2023-05-24T11:43:46.310Z,116943.30
2023-05-24T11:44:49.096Z,116943.30
2023-05-24T11:45:51.822Z,116943.30
2023-05-24T11:46:54.523Z,116943.30
2023-05-24T11:47:57.210Z,116943.30
2023-05-24T11:48:59.864Z,116943.30
2023-05-24T11:50:02.863Z,116943.30
2023-05-24T11:51:05.530Z,116943.30
2023-05-24T11:52:08.278Z,116943.30
2023-05-24T11:53:11.189Z,116943.30
2023-05-24T11:54:14.131Z,116943.30
2023-05-24T11:55:18.242Z,116943.30
2023-05-24T11:56:20.904Z,116943.30
2023-05-24T11:57:23.893Z,116943.30
2023-05-24T11:58:26.869Z,116943.30
2023-05-24T11:59:29.741Z,116943.30
2023-05-24T12:00:33.132Z,116943.30
2023-05-24T12:01:35.898Z,116943.30
2023-05-24T12:02:38.738Z,116943.30
2023-05-24T12:03:41.571Z,116943.30
2023-05-24T12:04:44.607Z,116943.30
2023-05-24T12:05:47.712Z,116943.30
2023-05-24T12:06:50.493Z,116943.30